sensor_id;sensor_type;location;lat;lon;timestamp;P1;durP1;ratioP1;P2;durP2;ratioP2
50219;SDS011;36110;51.536;7.562;2023-02-01T00:02:18;13.23;;;6.07;;
50219;SDS011;36110;51.536;7.562;2023-02-01T00:04:43;22.38;;;9.00;;
50219;SDS011;36110;51.536;7.562;2023-02-01T00:07:08;20.98;;;9.05;;
50219;SDS011;36110;51.536;7.562;2023-02-01T00:09:34;13.13;;;6.70;;
50219;SDS011;36110;51.536;7.562;2023-02-01T00:11:59;16.60;;;8.80;;
50219;SDS011;36110;51.536;7.562;2023-02-01T00:14:26;8.32;;;4.72;;
50219;SDS011;36110;51.536;7.562;2023-02-01T00:16:52;11.52;;;5.43;;
50219;SDS011;36110;51.536;7.562;2023-02-01T00:19:17;21.23;;;9.32;;
50219;SDS011;36110;51.536;7.562;2023-02-01T00:21:43;10.40;;;4.97;;
50219;SDS011;36110;51.536;7.562;2023-02-01T00:24:09;14.73;;;6.60;;
50219;SDS011;36110;51.536;7.562;2023-02-01T00:26:42;21.15;;;8.82;;
50219;SDS011;36110;51.536;7.562;2023-02-01T00:29:13;8.30;;;4.18;;
50219;SDS011;36110;51.536;7.562;2023-02-01T00:31:42;12.95;;;4.70;;
50219;SDS011;36110;51.536;7.562;2023-02-01T00:34:09;15.90;;;6.75;;
50219;SDS011;36110;51.536;7.562;2023-02-01T00:36:37;9.77;;;5.15;;
50219;SDS011;36110;51.536;7.562;2023-02-01T00:39:02;12.18;;;5.28;;
50219;SDS011;36110;51.536;7.562;2023-02-01T00:41:27;11.95;;;5.15;;
50219;SDS011;36110;51.536;7.562;2023-02-01T00:43:53;21.30;;;8.10;;
50219;SDS011;36110;51.536;7.562;2023-02-01T00:46:18;16.20;;;5.85;;
50219;SDS011;36110;51.536;7.562;2023-02-01T00:48:44;27.15;;;9.48;;
50219;SDS011;36110;51.536;7.562;2023-02-01T00:51:11;19.80;;;7.55;;
50219;SDS011;36110;51.536;7.562;2023-02-01T00:53:38;21.85;;;7.78;;
50219;SDS011;36110;51.536;7.562;2023-02-01T00:56:03;7.43;;;4.78;;
50219;SDS011;36110;51.536;7.562;2023-02-01T00:58:30;7.75;;;4.63;;
50219;SDS011;36110;51.536;7.562;2023-02-01T01:01:02;12.05;;;5.70;;
50219;SDS011;36110;51.536;7.562;2023-02-01T01:03:32;7.13;;;4.40;;
50219;SDS011;36110;51.536;7.562;2023-02-01T01:06:00;14.75;;;5.53;;
50219;SDS011;36110;51.536;7.562;2023-02-01T01:08:26;9.50;;;4.63;;
50219;SDS011;36110;51.536;7.562;2023-02-01T01:10:51;8.40;;;4.63;;
50219;SDS011;36110;51.536;7.562;2023-02-01T01:13:17;12.00;;;4.63;;
50219;SDS011;36110;51.536;7.562;2023-02-01T01:15:42;10.25;;;4.75;;
50219;SDS011;36110;51.536;7.562;2023-02-01T01:18:08;8.82;;;4.50;;
50219;SDS011;36110;51.536;7.562;2023-02-01T01:20:33;7.30;;;4.10;;
50219;SDS011;36110;51.536;7.562;2023-02-01T01:23:00;16.95;;;6.30;;
50219;SDS011;36110;51.536;7.562;2023-02-01T01:25:26;14.30;;;4.65;;
50219;SDS011;36110;51.536;7.562;2023-02-01T01:27:51;17.90;;;5.05;;
50219;SDS011;36110;51.536;7.562;2023-02-01T01:30:16;17.35;;;5.13;;
50219;SDS011;36110;51.536;7.562;2023-02-01T01:32:42;7.47;;;3.95;;
50219;SDS011;36110;51.536;7.562;2023-02-01T01:35:08;16.00;;;5.00;;
50219;SDS011;36110;51.536;7.562;2023-02-01T01:37:33;7.45;;;4.22;;
50219;SDS011;36110;51.536;7.562;2023-02-01T01:42:27;13.07;;;4.78;;
50219;SDS011;36110;51.536;7.562;2023-02-01T01:47:30;6.60;;;3.55;;
50219;SDS011;36110;51.536;7.562;2023-02-01T01:49:59;7.95;;;4.00;;
50219;SDS011;36110;51.536;7.562;2023-02-01T01:52:24;9.98;;;4.40;;
50219;SDS011;36110;51.536;7.562;2023-02-01T01:54:51;7.93;;;4.00;;
50219;SDS011;36110;51.536;7.562;2023-02-01T01:57:17;11.30;;;4.93;;
50219;SDS011;36110;51.536;7.562;2023-02-01T02:00:03;10.20;;;4.22;;
50219;SDS011;36110;51.536;7.562;2023-02-01T02:02:33;15.15;;;4.78;;
50219;SDS011;36110;51.536;7.562;2023-02-01T02:04:58;21.83;;;5.15;;
50219;SDS011;36110;51.536;7.562;2023-02-01T02:07:25;9.32;;;3.88;;
50219;SDS011;36110;51.536;7.562;2023-02-01T02:09:55;10.52;;;4.68;;
50219;SDS011;36110;51.536;7.562;2023-02-01T02:12:21;8.20;;;3.85;;
50219;SDS011;36110;51.536;7.562;2023-02-01T02:14:46;13.10;;;4.03;;
50219;SDS011;36110;51.536;7.562;2023-02-01T02:17:16;16.85;;;4.70;;
50219;SDS011;36110;51.536;7.562;2023-02-01T02:20:09;15.57;;;5.47;;
50219;SDS011;36110;51.536;7.562;2023-02-01T02:22:53;7.35;;;3.58;;
50219;SDS011;36110;51.536;7.562;2023-02-01T02:25:55;13.02;;;4.55;;
50219;SDS011;36110;51.536;7.562;2023-02-01T02:28:47;16.02;;;4.93;;
50219;SDS011;36110;51.536;7.562;2023-02-01T02:31:40;6.93;;;3.60;;
50219;SDS011;36110;51.536;7.562;2023-02-01T02:34:18;6.50;;;3.63;;
50219;SDS011;36110;51.536;7.562;2023-02-01T02:39:39;17.83;;;5.05;;
50219;SDS011;36110;51.536;7.562;2023-02-01T02:45:12;11.70;;;3.83;;
50219;SDS011;36110;51.536;7.562;2023-02-01T02:48:30;13.93;;;4.25;;
50219;SDS011;36110;51.536;7.562;2023-02-01T02:56:38;12.38;;;4.28;;
50219;SDS011;36110;51.536;7.562;2023-02-01T02:59:22;10.25;;;4.03;;
50219;SDS011;36110;51.536;7.562;2023-02-01T03:02:08;12.00;;;4.25;;
50219;SDS011;36110;51.536;7.562;2023-02-01T03:04:53;12.20;;;4.72;;
50219;SDS011;36110;51.536;7.562;2023-02-01T03:16:03;7.50;;;4.03;;
50219;SDS011;36110;51.536;7.562;2023-02-01T03:21:25;11.70;;;4.10;;
50219;SDS011;36110;51.536;7.562;2023-02-01T03:23:53;5.95;;;3.40;;
50219;SDS011;36110;51.536;7.562;2023-02-01T03:26:21;14.80;;;3.83;;
50219;SDS011;36110;51.536;7.562;2023-02-01T03:28:52;8.18;;;4.45;;
50219;SDS011;36110;51.536;7.562;2023-02-01T03:31:21;9.93;;;3.55;;
50219;SDS011;36110;51.536;7.562;2023-02-01T03:33:47;17.35;;;4.07;;
50219;SDS011;36110;51.536;7.562;2023-02-01T03:36:15;5.68;;;3.22;;
50219;SDS011;36110;51.536;7.562;2023-02-01T03:41:40;15.37;;;3.97;;
50219;SDS011;36110;51.536;7.562;2023-02-01T03:44:18;7.70;;;3.97;;
50219;SDS011;36110;51.536;7.562;2023-02-01T03:46:58;8.23;;;3.13;;
50219;SDS011;36110;51.536;7.562;2023-02-01T03:49:29;6.13;;;3.35;;
50219;SDS011;36110;51.536;7.562;2023-02-01T03:51:58;16.23;;;3.67;;
50219;SDS011;36110;51.536;7.562;2023-02-01T03:54:28;21.27;;;5.18;;
50219;SDS011;36110;51.536;7.562;2023-02-01T03:56:55;19.50;;;4.38;;
50219;SDS011;36110;51.536;7.562;2023-02-01T03:59:22;15.85;;;3.80;;
50219;SDS011;36110;51.536;7.562;2023-02-01T04:01:48;10.68;;;3.13;;
50219;SDS011;36110;51.536;7.562;2023-02-01T04:04:14;10.73;;;3.25;;
50219;SDS011;36110;51.536;7.562;2023-02-01T04:06:45;11.30;;;3.38;;
50219;SDS011;36110;51.536;7.562;2023-02-01T04:09:11;13.77;;;3.50;;
50219;SDS011;36110;51.536;7.562;2023-02-01T04:11:36;12.93;;;3.75;;
50219;SDS011;36110;51.536;7.562;2023-02-01T04:14:01;15.57;;;3.22;;
50219;SDS011;36110;51.536;7.562;2023-02-01T04:16:32;6.75;;;3.00;;
50219;SDS011;36110;51.536;7.562;2023-02-01T04:18:57;19.92;;;3.83;;
50219;SDS011;36110;51.536;7.562;2023-02-01T04:21:26;9.10;;;3.20;;
50219;SDS011;36110;51.536;7.562;2023-02-01T04:23:52;6.45;;;2.95;;
50219;SDS011;36110;51.536;7.562;2023-02-01T04:26:17;7.40;;;2.97;;
50219;SDS011;36110;51.536;7.562;2023-02-01T04:28:43;14.80;;;3.13;;
50219;SDS011;36110;51.536;7.562;2023-02-01T04:31:09;11.88;;;3.20;;
50219;SDS011;36110;51.536;7.562;2023-02-01T04:33:34;9.13;;;2.72;;
50219;SDS011;36110;51.536;7.562;2023-02-01T04:36:00;15.25;;;3.55;;
50219;SDS011;36110;51.536;7.562;2023-02-01T04:38:25;11.70;;;3.25;;
50219;SDS011;36110;51.536;7.562;2023-02-01T04:40:50;6.53;;;2.70;;
50219;SDS011;36110;51.536;7.562;2023-02-01T04:43:16;5.57;;;2.63;;
50219;SDS011;36110;51.536;7.562;2023-02-01T04:45:46;9.80;;;3.30;;
50219;SDS011;36110;51.536;7.562;2023-02-01T04:48:12;9.60;;;2.85;;
50219;SDS011;36110;51.536;7.562;2023-02-01T04:50:37;8.38;;;3.55;;
50219;SDS011;36110;51.536;7.562;2023-02-01T04:53:03;6.43;;;3.20;;
50219;SDS011;36110;51.536;7.562;2023-02-01T04:55:28;12.85;;;3.55;;
50219;SDS011;36110;51.536;7.562;2023-02-01T04:57:53;16.67;;;3.63;;
50219;SDS011;36110;51.536;7.562;2023-02-01T05:00:19;11.30;;;3.30;;
50219;SDS011;36110;51.536;7.562;2023-02-01T05:02:44;7.72;;;2.78;;
50219;SDS011;36110;51.536;7.562;2023-02-01T05:05:09;9.07;;;3.00;;
50219;SDS011;36110;51.536;7.562;2023-02-01T05:07:35;15.02;;;3.17;;
50219;SDS011;36110;51.536;7.562;2023-02-01T05:10:00;11.15;;;2.95;;
50219;SDS011;36110;51.536;7.562;2023-02-01T05:12:25;21.38;;;4.65;;
50219;SDS011;36110;51.536;7.562;2023-02-01T05:15:09;13.50;;;3.15;;
50219;SDS011;36110;51.536;7.562;2023-02-01T05:17:34;13.18;;;3.15;;
50219;SDS011;36110;51.536;7.562;2023-02-01T05:20:00;16.63;;;3.85;;
50219;SDS011;36110;51.536;7.562;2023-02-01T05:22:25;15.13;;;4.30;;
50219;SDS011;36110;51.536;7.562;2023-02-01T05:24:50;12.13;;;3.15;;
50219;SDS011;36110;51.536;7.562;2023-02-01T05:27:16;6.30;;;2.70;;
50219;SDS011;36110;51.536;7.562;2023-02-01T05:29:41;9.00;;;3.15;;
50219;SDS011;36110;51.536;7.562;2023-02-01T05:32:08;18.42;;;4.30;;
50219;SDS011;36110;51.536;7.562;2023-02-01T05:34:34;10.77;;;2.90;;
50219;SDS011;36110;51.536;7.562;2023-02-01T05:36:59;7.97;;;2.58;;
50219;SDS011;36110;51.536;7.562;2023-02-01T05:39:25;14.43;;;4.50;;
50219;SDS011;36110;51.536;7.562;2023-02-01T05:41:50;26.40;;;4.30;;
50219;SDS011;36110;51.536;7.562;2023-02-01T05:44:15;8.48;;;3.35;;
50219;SDS011;36110;51.536;7.562;2023-02-01T05:46:41;11.23;;;3.25;;
50219;SDS011;36110;51.536;7.562;2023-02-01T05:49:06;19.98;;;4.13;;
50219;SDS011;36110;51.536;7.562;2023-02-01T05:51:32;10.45;;;2.90;;
50219;SDS011;36110;51.536;7.562;2023-02-01T05:53:58;15.43;;;3.17;;
50219;SDS011;36110;51.536;7.562;2023-02-01T05:56:25;13.38;;;3.35;;
50219;SDS011;36110;51.536;7.562;2023-02-01T05:58:50;15.38;;;3.00;;
50219;SDS011;36110;51.536;7.562;2023-02-01T06:01:15;8.20;;;2.90;;
50219;SDS011;36110;51.536;7.562;2023-02-01T06:03:41;8.70;;;3.75;;
50219;SDS011;36110;51.536;7.562;2023-02-01T06:06:06;8.50;;;2.70;;
50219;SDS011;36110;51.536;7.562;2023-02-01T06:08:31;11.25;;;3.10;;
50219;SDS011;36110;51.536;7.562;2023-02-01T06:10:57;19.75;;;3.75;;
50219;SDS011;36110;51.536;7.562;2023-02-01T06:13:27;9.70;;;3.10;;
50219;SDS011;36110;51.536;7.562;2023-02-01T06:15:52;24.77;;;4.00;;
50219;SDS011;36110;51.536;7.562;2023-02-01T06:18:18;12.85;;;3.30;;
50219;SDS011;36110;51.536;7.562;2023-02-01T06:20:43;7.53;;;2.85;;
50219;SDS011;36110;51.536;7.562;2023-02-01T06:23:08;13.60;;;3.60;;
50219;SDS011;36110;51.536;7.562;2023-02-01T06:25:34;9.88;;;3.03;;
50219;SDS011;36110;51.536;7.562;2023-02-01T06:28:02;11.57;;;3.45;;
50219;SDS011;36110;51.536;7.562;2023-02-01T06:30:31;10.20;;;2.85;;
50219;SDS011;36110;51.536;7.562;2023-02-01T06:32:56;18.95;;;3.65;;
50219;SDS011;36110;51.536;7.562;2023-02-01T06:35:22;17.83;;;3.97;;
50219;SDS011;36110;51.536;7.562;2023-02-01T06:37:47;15.02;;;3.58;;
50219;SDS011;36110;51.536;7.562;2023-02-01T06:40:12;15.43;;;4.43;;
50219;SDS011;36110;51.536;7.562;2023-02-01T06:42:38;14.43;;;3.30;;
50219;SDS011;36110;51.536;7.562;2023-02-01T06:45:03;9.45;;;3.00;;
50219;SDS011;36110;51.536;7.562;2023-02-01T06:47:28;9.93;;;3.70;;
50219;SDS011;36110;51.536;7.562;2023-02-01T06:49:54;10.50;;;3.72;;
50219;SDS011;36110;51.536;7.562;2023-02-01T06:52:19;14.60;;;4.00;;
50219;SDS011;36110;51.536;7.562;2023-02-01T06:54:44;9.98;;;2.75;;
50219;SDS011;36110;51.536;7.562;2023-02-01T06:57:10;22.17;;;4.63;;
50219;SDS011;36110;51.536;7.562;2023-02-01T06:59:35;19.15;;;3.80;;
50219;SDS011;36110;51.536;7.562;2023-02-01T07:02:00;20.00;;;4.05;;
50219;SDS011;36110;51.536;7.562;2023-02-01T07:04:26;47.38;;;7.78;;
50219;SDS011;36110;51.536;7.562;2023-02-01T07:06:51;32.60;;;5.97;;
50219;SDS011;36110;51.536;7.562;2023-02-01T07:09:16;25.60;;;4.70;;
50219;SDS011;36110;51.536;7.562;2023-02-01T07:11:41;39.03;;;5.63;;
50219;SDS011;36110;51.536;7.562;2023-02-01T07:14:09;30.48;;;5.25;;
50219;SDS011;36110;51.536;7.562;2023-02-01T07:16:35;27.95;;;6.22;;
50219;SDS011;36110;51.536;7.562;2023-02-01T07:19:00;20.75;;;4.15;;
50219;SDS011;36110;51.536;7.562;2023-02-01T07:21:26;24.10;;;4.97;;
50219;SDS011;36110;51.536;7.562;2023-02-01T07:23:52;25.17;;;5.60;;
50219;SDS011;36110;51.536;7.562;2023-02-01T07:26:18;28.30;;;5.68;;
50219;SDS011;36110;51.536;7.562;2023-02-01T07:28:44;26.40;;;4.53;;
50219;SDS011;36110;51.536;7.562;2023-02-01T07:31:10;30.70;;;5.72;;
50219;SDS011;36110;51.536;7.562;2023-02-01T07:33:37;23.63;;;4.28;;
50219;SDS011;36110;51.536;7.562;2023-02-01T07:36:03;23.10;;;5.40;;
50219;SDS011;36110;51.536;7.562;2023-02-01T07:38:29;22.48;;;4.70;;
50219;SDS011;36110;51.536;7.562;2023-02-01T07:40:58;25.30;;;4.95;;
50219;SDS011;36110;51.536;7.562;2023-02-01T07:43:24;28.88;;;5.35;;
50219;SDS011;36110;51.536;7.562;2023-02-01T07:45:50;27.38;;;5.13;;
50219;SDS011;36110;51.536;7.562;2023-02-01T07:48:17;26.73;;;4.45;;
50219;SDS011;36110;51.536;7.562;2023-02-01T07:50:42;16.52;;;3.63;;
50219;SDS011;36110;51.536;7.562;2023-02-01T07:53:07;19.58;;;4.60;;
50219;SDS011;36110;51.536;7.562;2023-02-01T07:55:32;26.92;;;4.78;;
50219;SDS011;36110;51.536;7.562;2023-02-01T07:57:59;23.73;;;4.75;;
50219;SDS011;36110;51.536;7.562;2023-02-01T08:00:25;25.33;;;5.38;;
50219;SDS011;36110;51.536;7.562;2023-02-01T08:03:09;26.52;;;6.05;;
50219;SDS011;36110;51.536;7.562;2023-02-01T08:05:35;25.08;;;6.18;;
50219;SDS011;36110;51.536;7.562;2023-02-01T08:08:01;24.20;;;4.95;;
50219;SDS011;36110;51.536;7.562;2023-02-01T08:10:27;19.38;;;4.63;;
50219;SDS011;36110;51.536;7.562;2023-02-01T08:12:57;20.17;;;4.75;;
50219;SDS011;36110;51.536;7.562;2023-02-01T08:15:23;16.42;;;3.90;;
50219;SDS011;36110;51.536;7.562;2023-02-01T08:17:48;29.10;;;6.55;;
50219;SDS011;36110;51.536;7.562;2023-02-01T08:20:14;23.45;;;5.63;;
50219;SDS011;36110;51.536;7.562;2023-02-01T08:22:40;21.00;;;4.63;;
50219;SDS011;36110;51.536;7.562;2023-02-01T08:25:06;22.13;;;4.43;;
50219;SDS011;36110;51.536;7.562;2023-02-01T08:27:32;16.88;;;4.78;;
50219;SDS011;36110;51.536;7.562;2023-02-01T08:29:58;22.60;;;5.07;;
50219;SDS011;36110;51.536;7.562;2023-02-01T08:32:24;19.88;;;5.57;;
50219;SDS011;36110;51.536;7.562;2023-02-01T08:34:49;25.00;;;4.75;;
50219;SDS011;36110;51.536;7.562;2023-02-01T08:37:15;18.67;;;6.10;;
50219;SDS011;36110;51.536;7.562;2023-02-01T08:39:40;11.95;;;3.97;;
50219;SDS011;36110;51.536;7.562;2023-02-01T08:42:08;14.10;;;4.32;;
50219;SDS011;36110;51.536;7.562;2023-02-01T08:44:52;15.27;;;4.93;;
50219;SDS011;36110;51.536;7.562;2023-02-01T08:47:17;22.77;;;5.75;;
50219;SDS011;36110;51.536;7.562;2023-02-01T08:49:43;20.80;;;5.05;;
50219;SDS011;36110;51.536;7.562;2023-02-01T08:52:08;19.75;;;5.15;;
50219;SDS011;36110;51.536;7.562;2023-02-01T08:54:33;15.38;;;4.70;;
50219;SDS011;36110;51.536;7.562;2023-02-01T08:56:59;15.23;;;5.15;;
50219;SDS011;36110;51.536;7.562;2023-02-01T08:59:24;16.27;;;4.20;;
50219;SDS011;36110;51.536;7.562;2023-02-01T09:01:49;21.67;;;5.15;;
50219;SDS011;36110;51.536;7.562;2023-02-01T09:04:14;22.77;;;5.93;;
50219;SDS011;36110;51.536;7.562;2023-02-01T09:06:40;13.98;;;3.95;;
50219;SDS011;36110;51.536;7.562;2023-02-01T09:09:06;20.83;;;5.18;;
50219;SDS011;36110;51.536;7.562;2023-02-01T09:11:31;18.50;;;5.03;;
50219;SDS011;36110;51.536;7.562;2023-02-01T09:13:57;15.13;;;4.72;;
50219;SDS011;36110;51.536;7.562;2023-02-01T09:16:22;13.75;;;4.80;;
50219;SDS011;36110;51.536;7.562;2023-02-01T09:18:48;20.00;;;5.53;;
50219;SDS011;36110;51.536;7.562;2023-02-01T09:21:13;25.85;;;6.40;;
50219;SDS011;36110;51.536;7.562;2023-02-01T09:23:38;20.55;;;5.35;;
50219;SDS011;36110;51.536;7.562;2023-02-01T09:26:04;16.92;;;4.28;;
50219;SDS011;36110;51.536;7.562;2023-02-01T09:28:29;17.73;;;5.18;;
50219;SDS011;36110;51.536;7.562;2023-02-01T09:30:56;18.85;;;5.32;;
50219;SDS011;36110;51.536;7.562;2023-02-01T09:33:22;23.35;;;5.03;;
50219;SDS011;36110;51.536;7.562;2023-02-01T09:35:48;15.38;;;5.18;;
50219;SDS011;36110;51.536;7.562;2023-02-01T09:38:14;16.98;;;5.07;;
50219;SDS011;36110;51.536;7.562;2023-02-01T09:40:39;16.55;;;4.93;;
50219;SDS011;36110;51.536;7.562;2023-02-01T09:48:29;16.42;;;4.35;;
50219;SDS011;36110;51.536;7.562;2023-02-01T09:50:57;18.42;;;5.35;;
50219;SDS011;36110;51.536;7.562;2023-02-01T09:53:32;15.07;;;4.95;;
50219;SDS011;36110;51.536;7.562;2023-02-01T09:56:04;20.05;;;5.43;;
50219;SDS011;36110;51.536;7.562;2023-02-01T09:58:38;22.70;;;6.30;;
50219;SDS011;36110;51.536;7.562;2023-02-01T10:01:40;13.65;;;4.95;;
50219;SDS011;36110;51.536;7.562;2023-02-01T10:04:01;22.17;;;5.47;;
50219;SDS011;36110;51.536;7.562;2023-02-01T10:09:34;19.33;;;6.40;;
50219;SDS011;36110;51.536;7.562;2023-02-01T10:14:46;21.15;;;5.90;;
50219;SDS011;36110;51.536;7.562;2023-02-01T10:25:10;16.75;;;4.80;;
50219;SDS011;36110;51.536;7.562;2023-02-01T10:27:55;17.30;;;4.60;;
50219;SDS011;36110;51.536;7.562;2023-02-01T10:30:22;15.13;;;5.00;;
50219;SDS011;36110;51.536;7.562;2023-02-01T10:32:55;20.02;;;6.25;;
50219;SDS011;36110;51.536;7.562;2023-02-01T10:35:22;17.50;;;5.47;;
50219;SDS011;36110;51.536;7.562;2023-02-01T10:37:49;14.13;;;4.28;;
50219;SDS011;36110;51.536;7.562;2023-02-01T10:40:17;18.58;;;5.82;;
50219;SDS011;36110;51.536;7.562;2023-02-01T10:42:46;23.40;;;6.45;;
50219;SDS011;36110;51.536;7.562;2023-02-01T10:45:13;14.05;;;4.45;;
50219;SDS011;36110;51.536;7.562;2023-02-01T10:47:42;14.55;;;5.10;;
50219;SDS011;36110;51.536;7.562;2023-02-01T10:58:15;20.00;;;5.15;;
50219;SDS011;36110;51.536;7.562;2023-02-01T11:00:57;24.20;;;6.43;;
50219;SDS011;36110;51.536;7.562;2023-02-01T11:05:53;14.98;;;4.90;;
50219;SDS011;36110;51.536;7.562;2023-02-01T11:08:20;15.05;;;4.80;;
50219;SDS011;36110;51.536;7.562;2023-02-01T11:10:45;11.55;;;4.70;;
50219;SDS011;36110;51.536;7.562;2023-02-01T11:13:13;12.68;;;4.82;;
50219;SDS011;36110;51.536;7.562;2023-02-01T11:15:46;12.82;;;4.32;;
50219;SDS011;36110;51.536;7.562;2023-02-01T11:18:19;13.45;;;4.95;;
50219;SDS011;36110;51.536;7.562;2023-02-01T11:20:46;13.23;;;4.13;;
50219;SDS011;36110;51.536;7.562;2023-02-01T11:23:21;13.45;;;4.65;;
50219;SDS011;36110;51.536;7.562;2023-02-01T11:25:58;17.98;;;5.63;;
50219;SDS011;36110;51.536;7.562;2023-02-01T11:28:25;20.30;;;5.32;;
50219;SDS011;36110;51.536;7.562;2023-02-01T11:30:53;14.02;;;6.07;;
50219;SDS011;36110;51.536;7.562;2023-02-01T11:33:20;20.02;;;6.07;;
50219;SDS011;36110;51.536;7.562;2023-02-01T11:35:52;13.02;;;5.28;;
50219;SDS011;36110;51.536;7.562;2023-02-01T11:38:20;15.02;;;5.07;;
50219;SDS011;36110;51.536;7.562;2023-02-01T11:40:47;22.80;;;5.65;;
50219;SDS011;36110;51.536;7.562;2023-02-01T11:45:37;12.45;;;5.22;;
50219;SDS011;36110;51.536;7.562;2023-02-01T11:48:07;11.93;;;3.97;;
50219;SDS011;36110;51.536;7.562;2023-02-01T11:50:48;19.17;;;5.07;;
50219;SDS011;36110;51.536;7.562;2023-02-01T11:56:07;14.63;;;4.32;;
50219;SDS011;36110;51.536;7.562;2023-02-01T12:01:26;14.80;;;5.00;;
50219;SDS011;36110;51.536;7.562;2023-02-01T12:06:45;16.92;;;5.68;;
50219;SDS011;36110;51.536;7.562;2023-02-01T12:11:59;13.27;;;4.70;;
50219;SDS011;36110;51.536;7.562;2023-02-01T12:14:50;22.10;;;5.75;;
50219;SDS011;36110;51.536;7.562;2023-02-01T12:25:29;16.67;;;4.45;;
50219;SDS011;36110;51.536;7.562;2023-02-01T12:33:31;13.07;;;3.92;;
50219;SDS011;36110;51.536;7.562;2023-02-01T12:36:12;12.07;;;4.55;;
50219;SDS011;36110;51.536;7.562;2023-02-01T12:38:55;13.05;;;4.53;;
50219;SDS011;36110;51.536;7.562;2023-02-01T12:41:47;13.32;;;4.35;;
50219;SDS011;36110;51.536;7.562;2023-02-01T12:46:52;13.65;;;4.50;;
50219;SDS011;36110;51.536;7.562;2023-02-01T12:52:17;20.70;;;4.88;;
50219;SDS011;36110;51.536;7.562;2023-02-01T12:54:48;13.77;;;4.68;;
50219;SDS011;36110;51.536;7.562;2023-02-01T12:57:21;17.88;;;4.72;;
50219;SDS011;36110;51.536;7.562;2023-02-01T13:00:01;15.38;;;4.80;;
50219;SDS011;36110;51.536;7.562;2023-02-01T13:02:29;17.02;;;4.75;;
50219;SDS011;36110;51.536;7.562;2023-02-01T13:10:32;10.30;;;3.95;;
50219;SDS011;36110;51.536;7.562;2023-02-01T13:15:40;18.38;;;4.50;;
50219;SDS011;36110;51.536;7.562;2023-02-01T13:18:31;13.48;;;4.80;;
50219;SDS011;36110;51.536;7.562;2023-02-01T13:21:02;9.38;;;3.78;;
50219;SDS011;36110;51.536;7.562;2023-02-01T13:23:40;9.75;;;3.85;;
50219;SDS011;36110;51.536;7.562;2023-02-01T13:26:06;10.95;;;4.38;;
50219;SDS011;36110;51.536;7.562;2023-02-01T13:28:48;16.73;;;5.05;;
50219;SDS011;36110;51.536;7.562;2023-02-01T13:42:36;13.13;;;4.25;;
50219;SDS011;36110;51.536;7.562;2023-02-01T13:45:14;14.88;;;4.78;;
50219;SDS011;36110;51.536;7.562;2023-02-01T13:47:42;11.00;;;3.95;;
50219;SDS011;36110;51.536;7.562;2023-02-01T13:50:18;15.18;;;4.55;;
50219;SDS011;36110;51.536;7.562;2023-02-01T13:52:54;12.00;;;4.00;;
50219;SDS011;36110;51.536;7.562;2023-02-01T13:57:46;19.58;;;4.35;;
50219;SDS011;36110;51.536;7.562;2023-02-01T14:13:31;19.92;;;4.03;;
50219;SDS011;36110;51.536;7.562;2023-02-01T14:26:23;17.08;;;3.45;;
50219;SDS011;36110;51.536;7.562;2023-02-01T14:28:51;22.17;;;5.95;;
50219;SDS011;36110;51.536;7.562;2023-02-01T14:31:42;21.08;;;4.68;;
50219;SDS011;36110;51.536;7.562;2023-02-01T14:34:31;18.17;;;3.78;;
50219;SDS011;36110;51.536;7.562;2023-02-01T14:37:03;20.90;;;4.35;;
50219;SDS011;36110;51.536;7.562;2023-02-01T14:39:31;22.90;;;5.18;;
50219;SDS011;36110;51.536;7.562;2023-02-01T14:42:00;19.58;;;4.20;;
50219;SDS011;36110;51.536;7.562;2023-02-01T14:44:31;18.15;;;3.88;;
50219;SDS011;36110;51.536;7.562;2023-02-01T14:49:31;22.13;;;4.63;;
50219;SDS011;36110;51.536;7.562;2023-02-01T14:51:58;16.63;;;4.20;;
50219;SDS011;36110;51.536;7.562;2023-02-01T14:54:24;20.77;;;4.95;;
50219;SDS011;36110;51.536;7.562;2023-02-01T14:56:51;18.10;;;4.40;;
50219;SDS011;36110;51.536;7.562;2023-02-01T14:59:17;20.88;;;4.57;;
50219;SDS011;36110;51.536;7.562;2023-02-01T15:01:49;12.05;;;3.75;;
50219;SDS011;36110;51.536;7.562;2023-02-01T15:04:17;19.23;;;4.70;;
50219;SDS011;36110;51.536;7.562;2023-02-01T15:06:56;23.35;;;5.10;;
50219;SDS011;36110;51.536;7.562;2023-02-01T15:09:27;17.52;;;4.82;;
50219;SDS011;36110;51.536;7.562;2023-02-01T15:14:20;18.58;;;4.55;;
50219;SDS011;36110;51.536;7.562;2023-02-01T15:16:46;13.55;;;4.55;;
50219;SDS011;36110;51.536;7.562;2023-02-01T15:19:24;22.35;;;5.05;;
50219;SDS011;36110;51.536;7.562;2023-02-01T15:21:51;13.38;;;4.13;;
50219;SDS011;36110;51.536;7.562;2023-02-01T15:24:22;15.73;;;3.47;;
50219;SDS011;36110;51.536;7.562;2023-02-01T15:26:55;19.40;;;3.92;;
50219;SDS011;36110;51.536;7.562;2023-02-01T15:29:22;7.13;;;3.30;;
50219;SDS011;36110;51.536;7.562;2023-02-01T15:31:52;11.40;;;3.25;;
50219;SDS011;36110;51.536;7.562;2023-02-01T15:34:18;13.38;;;3.65;;
50219;SDS011;36110;51.536;7.562;2023-02-01T15:36:44;12.02;;;3.20;;
50219;SDS011;36110;51.536;7.562;2023-02-01T15:39:12;10.57;;;3.20;;
50219;SDS011;36110;51.536;7.562;2023-02-01T15:41:44;12.80;;;4.18;;
50219;SDS011;36110;51.536;7.562;2023-02-01T15:44:19;13.02;;;2.70;;
50219;SDS011;36110;51.536;7.562;2023-02-01T15:46:48;16.48;;;3.67;;
50219;SDS011;36110;51.536;7.562;2023-02-01T15:49:28;14.10;;;3.42;;
50219;SDS011;36110;51.536;7.562;2023-02-01T15:51:55;21.15;;;3.60;;
50219;SDS011;36110;51.536;7.562;2023-02-01T15:54:24;9.95;;;3.63;;
50219;SDS011;36110;51.536;7.562;2023-02-01T15:56:52;11.35;;;3.72;;
50219;SDS011;36110;51.536;7.562;2023-02-01T15:59:20;14.98;;;3.42;;
50219;SDS011;36110;51.536;7.562;2023-02-01T16:02:03;24.38;;;3.90;;
50219;SDS011;36110;51.536;7.562;2023-02-01T16:04:28;10.18;;;3.03;;
50219;SDS011;36110;51.536;7.562;2023-02-01T16:06:59;15.02;;;3.40;;
50219;SDS011;36110;51.536;7.562;2023-02-01T16:09:49;10.18;;;3.38;;
50219;SDS011;36110;51.536;7.562;2023-02-01T16:12:31;10.93;;;3.00;;
50219;SDS011;36110;51.536;7.562;2023-02-01T16:15:03;9.77;;;2.90;;
50219;SDS011;36110;51.536;7.562;2023-02-01T16:17:29;9.25;;;2.72;;
50219;SDS011;36110;51.536;7.562;2023-02-01T16:19:54;10.02;;;2.92;;
50219;SDS011;36110;51.536;7.562;2023-02-01T16:22:20;11.02;;;3.13;;
50219;SDS011;36110;51.536;7.562;2023-02-01T16:24:45;11.02;;;3.65;;
50219;SDS011;36110;51.536;7.562;2023-02-01T16:27:11;13.18;;;3.08;;
50219;SDS011;36110;51.536;7.562;2023-02-01T16:29:36;13.30;;;3.50;;
50219;SDS011;36110;51.536;7.562;2023-02-01T16:32:01;11.85;;;3.15;;
50219;SDS011;36110;51.536;7.562;2023-02-01T16:34:27;15.18;;;4.30;;
50219;SDS011;36110;51.536;7.562;2023-02-01T16:36:52;11.45;;;2.97;;
50219;SDS011;36110;51.536;7.562;2023-02-01T16:39:21;13.60;;;3.30;;
50219;SDS011;36110;51.536;7.562;2023-02-01T16:41:47;18.17;;;3.88;;
50219;SDS011;36110;51.536;7.562;2023-02-01T16:44:13;14.30;;;3.63;;
50219;SDS011;36110;51.536;7.562;2023-02-01T16:46:42;10.07;;;3.08;;
50219;SDS011;36110;51.536;7.562;2023-02-01T16:49:20;14.00;;;3.30;;
50219;SDS011;36110;51.536;7.562;2023-02-01T16:51:46;13.05;;;4.05;;
50219;SDS011;36110;51.536;7.562;2023-02-01T16:54:13;10.73;;;3.00;;
50219;SDS011;36110;51.536;7.562;2023-02-01T16:56:39;23.05;;;5.20;;
50219;SDS011;36110;51.536;7.562;2023-02-01T16:59:06;22.13;;;5.20;;
50219;SDS011;36110;51.536;7.562;2023-02-01T17:01:33;11.63;;;2.90;;
50219;SDS011;36110;51.536;7.562;2023-02-01T17:03:58;22.15;;;4.50;;
50219;SDS011;36110;51.536;7.562;2023-02-01T17:06:24;18.40;;;4.53;;
50219;SDS011;36110;51.536;7.562;2023-02-01T17:08:54;21.67;;;5.10;;
50219;SDS011;36110;51.536;7.562;2023-02-01T17:11:22;18.33;;;5.53;;